Time;durP1;ratioP1;P1;durP2;ratioP2;P2;SDS_P1;SDS_P2;PMS_P1;PMS_P2;Temp;Humidity;BMP_temperature;BMP_pressure;BME280_temperature;BME280_humidity;BME280_pressure;Samples;Min_cycle;Max_cycle;Signal;HPM_P1;HPM_P2
2021/10/10 00:00:14;;;;;;;1999.90;999.90;;;;;;;5.02;43.68;102623.84;6243198;22;99336;-71
2021/10/10 00:02:42;;;;;;;1999.90;999.90;;;;;;;5.00;43.91;102623.72;6271652;22;97012;-71
2021/10/10 00:05:10;;;;;;;1999.90;999.90;;;;;;;4.99;43.88;102619.22;6271701;22;96826;-71
2021/10/10 00:07:41;;;;;;;1999.90;999.90;;;;;;;4.96;43.84;102619.03;6271212;22;96400;-71
2021/10/10 00:10:09;;;;;;;1999.90;999.90;;;;;;;4.97;43.82;102614.66;6269764;22;97137;-71
2021/10/10 00:12:38;;;;;;;1999.90;999.90;;;;;;;4.93;43.85;102613.53;6243676;22;99217;-71
2021/10/10 00:15:07;;;;;;;1999.90;999.90;;;;;;;4.91;44.04;102611.56;6271009;22;96972;-71
2021/10/10 00:17:37;;;;;;;1999.90;999.90;;;;;;;4.89;43.99;102608.84;6243579;22;97337;-71
2021/10/10 00:20:06;;;;;;;1999.90;999.90;;;;;;;4.86;43.92;102605.06;6242607;22;99277;-71
2021/10/10 00:22:34;;;;;;;1999.90;999.90;;;;;;;4.83;44.00;102600.47;6268847;22;97320;-71
2021/10/10 00:25:02;;;;;;;1999.90;999.90;;;;;;;4.80;43.91;102594.06;6243938;22;96984;-71
2021/10/10 00:27:30;;;;;;;1999.90;999.90;;;;;;;4.77;43.96;102599.13;6243401;22;97188;-71
2021/10/10 00:30:00;;;;;;;1999.90;999.90;;;;;;;4.74;44.04;102596.22;6218163;22;100858;-71
2021/10/10 00:32:27;;;;;;;1999.90;999.90;;;;;;;4.70;44.11;102591.56;6243217;22;99211;-72
2021/10/10 00:34:57;;;;;;;1999.90;999.90;;;;;;;4.68;44.16;102593.16;6244187;22;97076;-71
2021/10/10 00:37:24;;;;;;;1999.90;999.90;;;;;;;4.65;44.14;102583.28;6270704;22;97137;-73
2021/10/10 00:39:52;;;;;;;1999.90;999.90;;;;;;;4.62;44.08;102583.09;6243898;22;98504;-71
2021/10/10 00:42:20;;;;;;;1999.90;999.90;;;;;;;4.60;44.27;102584.69;6270390;22;99089;-71
2021/10/10 00:44:50;;;;;;;1999.90;999.90;;;;;;;4.56;44.05;102585.25;6243262;22;96625;-73
2021/10/10 00:47:18;;;;;;;1999.90;999.90;;;;;;;4.51;44.47;102588.34;6270939;22;96810;-71
2021/10/10 00:49:46;;;;;;;1999.90;999.90;;;;;;;4.42;44.51;102585.97;6243671;22;99788;-72
2021/10/10 00:52:17;;;;;;;1999.90;999.90;;;;;;;4.37;44.22;102578.50;6270916;22;98767;-72
2021/10/10 00:54:45;;;;;;;1999.90;999.90;;;;;;;4.32;44.31;102572.00;6218430;22;97238;-71
2021/10/10 00:57:14;;;;;;;1999.90;999.90;;;;;;;4.27;44.37;102578.63;6270846;22;97212;-72
2021/10/10 00:59:44;;;;;;;1999.90;999.90;;;;;;;4.24;44.44;102576.69;6270471;22;98749;-72
2021/10/10 01:02:12;;;;;;;1999.90;999.90;;;;;;;4.21;44.68;102576.44;6242574;22;100406;-71
2021/10/10 01:04:41;;;;;;;1999.90;999.90;;;;;;;4.17;44.48;102570.03;6243822;22;97035;-71
2021/10/10 01:07:09;;;;;;;1999.90;999.90;;;;;;;4.15;44.69;102576.00;6243454;22;96819;-72
2021/10/10 01:09:38;;;;;;;1999.90;999.90;;;;;;;4.13;44.47;102580.22;6243794;22;99225;-72
2021/10/10 01:12:07;;;;;;;1999.90;999.90;;;;;;;4.11;44.91;102574.84;6270151;22;97663;-72
2021/10/10 01:14:36;;;;;;;1999.90;999.90;;;;;;;4.10;44.48;102569.44;6218096;22;96976;-73
2021/10/10 01:17:04;;;;;;;1999.90;999.90;;;;;;;4.07;44.72;102562.25;6243494;22;97140;-72
2021/10/10 01:19:33;;;;;;;1999.90;999.90;;;;;;;4.07;45.05;102562.25;6242627;22;100883;-72
2021/10/10 01:22:04;;;;;;;1999.90;999.90;;;;;;;4.06;44.87;102555.13;6270377;22;98872;-72
2021/10/10 01:24:31;;;;;;;1999.90;999.90;;;;;;;4.05;45.08;102555.00;6271373;22;96680;-71
2021/10/10 01:26:59;;;;;;;1999.90;999.90;;;;;;;4.01;44.71;102553.88;6243275;22;96610;-71
2021/10/10 01:29:27;;;;;;;1999.90;999.90;;;;;;;3.97;44.90;102554.44;6271225;22;98913;-71
2021/10/10 01:31:55;;;;;;;1999.90;999.90;;;;;;;3.92;44.65;102546.97;6241682;22;96711;-72
2021/10/10 01:34:22;;;;;;;1999.90;999.90;;;;;;;3.88;44.67;102544.91;6272324;22;96755;-72
2021/10/10 01:36:50;;;;;;;1999.90;999.90;;;;;;;3.85;44.81;102544.69;6242987;22;97147;-72
2021/10/10 01:39:19;;;;;;;1999.90;999.90;;;;;;;3.82;45.13;102541.84;6271151;22;96640;-72
2021/10/10 01:41:47;;;;;;;1999.90;999.90;;;;;;;3.82;44.77;102548.03;6241849;22;98592;-72
2021/10/10 01:44:16;;;;;;;1999.90;999.90;;;;;;;3.80;44.81;102539.09;6217875;22;96818;-72
2021/10/10 01:46:44;;;;;;;1999.90;999.90;;;;;;;3.76;44.76;102542.28;6270912;22;96863;-71
2021/10/10 01:49:12;;;;;;;1999.90;999.90;;;;;;;3.73;44.77;102536.75;6270432;22;99548;-72
2021/10/10 01:51:42;;;;;;;1999.90;999.90;;;;;;;3.69;45.14;102534.72;6241963;22;98614;-71
2021/10/10 01:54:10;;;;;;;1999.90;999.90;;;;;;;3.68;45.13;102538.13;6270643;22;96811;-71
2021/10/10 01:56:39;;;;;;;1999.90;999.90;;;;;;;3.64;44.75;102533.38;6242788;22;96907;-72
2021/10/10 01:59:07;;;;;;;1999.90;999.90;;;;;;;3.60;44.86;102533.97;6271191;22;97608;-72
2021/10/10 02:01:34;;;;;;;1999.90;999.90;;;;;;;3.58;44.89;102535.56;6239710;22;100489;-72
2021/10/10 02:04:04;;;;;;;1999.90;999.90;;;;;;;3.55;45.49;102532.69;6270325;22;97027;-72
2021/10/10 02:06:32;;;;;;;1999.90;999.90;;;;;;;3.54;45.60;102536.13;6240897;22;96693;-72
2021/10/10 02:08:59;;;;;;;1999.90;999.90;;;;;;;3.52;45.66;102528.91;6241489;22;99449;-72
2021/10/10 02:11:27;;;;;;;1999.90;999.90;;;;;;;3.49;45.00;102524.34;6242702;22;97217;-72
2021/10/10 02:13:56;;;;;;;1999.90;999.90;;;;;;;3.47;45.32;102525.94;6271331;22;97125;-72
2021/10/10 02:16:24;;;;;;;1999.90;999.90;;;;;;;3.44;45.54;102527.41;6271747;22;96944;-72
2021/10/10 02:18:53;;;;;;;1999.90;999.90;;;;;;;3.41;45.54;102525.44;6269438;22;97966;-72
2021/10/10 02:21:21;;;;;;;1999.90;999.90;;;;;;;3.40;45.52;102534.16;6242788;22;100312;-72
2021/10/10 02:23:48;;;;;;;1999.90;999.90;;;;;;;3.39;45.64;102526.09;6242677;22;96841;-72
2021/10/10 02:26:16;;;;;;;1999.90;999.90;;;;;;;3.38;46.04;102525.22;6271239;22;96658;-72
2021/10/10 02:28:44;;;;;;;1999.90;999.90;;;;;;;3.37;45.71;102517.22;6216569;22;99854;-72
2021/10/10 02:31:13;;;;;;;1999.90;999.90;;;;;;;3.35;46.16;102514.44;6269371;22;97629;-72
2021/10/10 02:33:41;;;;;;;1999.90;999.90;;;;;;;3.34;45.69;102520.50;6243071;22;96590;-72
2021/10/10 02:36:09;;;;;;;1999.90;999.90;;;;;;;3.34;45.71;102512.63;6243305;22;97222;-72
2021/10/10 02:38:36;;;;;;;1999.90;999.90;;;;;;;3.33;45.91;102513.41;6242039;22;97845;-72
2021/10/10 02:41:04;;;;;;;1999.90;999.90;;;;;;;3.32;46.17;102514.22;6269319;22;97062;-73
2021/10/10 02:43:32;;;;;;;1999.90;999.90;;;;;;;3.30;45.86;102506.97;6243427;22;96686;-72
2021/10/10 02:45:59;;;;;;;1999.90;999.90;;;;;;;3.27;46.08;102510.31;6243714;22;96791;-71
2021/10/10 02:48:28;;;;;;;1999.90;999.90;;;;;;;3.28;45.62;102501.59;6242168;22;99410;-71
2021/10/10 02:50:56;;;;;;;1999.90;999.90;;;;;;;3.23;45.54;102505.59;6270652;22;97813;-72
2021/10/10 02:53:24;;;;;;;1999.90;999.90;;;;;;;3.22;45.54;102511.69;6243640;22;97153;-72
2021/10/10 02:55:52;;;;;;;1999.90;999.90;;;;;;;3.20;45.64;102506.25;6272622;22;96749;-72
2021/10/10 02:58:20;;;;;;;1999.90;999.90;;;;;;;3.20;45.79;102510.63;6268886;22;98954;-72
2021/10/10 03:00:47;;;;;;;1999.90;999.90;;;;;;;3.19;45.68;102503.53;6242768;22;100649;-72
2021/10/10 03:03:15;;;;;;;1999.90;999.90;;;;;;;3.18;45.90;102506.97;6270401;22;96863;-71
2021/10/10 03:05:44;;;;;;;1999.90;999.90;;;;;;;3.16;46.19;102505.91;6217050;22;96735;-71
2021/10/10 03:08:12;;;;;;;1999.90;999.90;;;;;;;3.15;46.28;102510.25;6270092;22;97639;-72
2021/10/10 03:10:40;;;;;;;1999.90;999.90;;;;;;;3.14;45.93;102507.50;6243097;22;97706;-72
2021/10/10 03:13:08;;;;;;;1999.90;999.90;;;;;;;3.13;46.28;102510.97;6270796;22;96905;-72
2021/10/10 03:15:36;;;;;;;1999.90;999.90;;;;;;;3.12;46.04;102514.38;6270815;22;97134;-72
2021/10/10 03:18:04;;;;;;;1999.90;999.90;;;;;;;3.10;45.78;102518.59;6241743;22;99644;-71
2021/10/10 03:20:32;;;;;;;1999.90;999.90;;;;;;;3.08;45.76;102509.66;6242219;22;99314;-72
2021/10/10 03:23:01;;;;;;;1999.90;999.90;;;;;;;3.05;45.92;102496.28;6270826;22;97144;-71
2021/10/10 03:25:30;;;;;;;1999.90;999.90;;;;;;;3.03;46.55;102501.41;6271458;22;97281;-71
2021/10/10 03:27:57;;;;;;;1999.90;999.90;;;;;;;3.01;46.05;102502.09;6241856;22;100172;-72
2021/10/10 03:30:25;;;;;;;1999.90;999.90;;;;;;;2.99;46.53;102503.66;6271599;22;97577;-72
2021/10/10 03:32:53;;;;;;;1999.90;999.90;;;;;;;2.96;46.67;102501.75;6272161;22;96598;-72
2021/10/10 03:35:20;;;;;;;1999.90;999.90;;;;;;;2.94;46.19;102494.50;6274202;22;97114;-72
2021/10/10 03:37:48;;;;;;;1999.90;999.90;;;;;;;2.91;46.13;102496.91;6271187;22;97928;-73
2021/10/10 03:40:18;;;;;;;1999.90;999.90;;;;;;;2.90;46.61;102488.09;6243802;22;99258;-72
2021/10/10 03:42:45;;;;;;;1999.90;999.90;;;;;;;2.87;46.25;102489.56;6272121;22;96938;-73
2021/10/10 03:45:13;;;;;;;1999.90;999.90;;;;;;;2.86;45.95;102487.72;6244398;22;97031;-73
2021/10/10 03:47:41;;;;;;;1999.90;999.90;;;;;;;2.83;46.14;102487.50;6243110;22;99237;-73
2021/10/10 03:50:09;;;;;;;1999.90;999.90;;;;;;;2.78;46.20;102489.78;6243956;22;99622;-73
2021/10/10 03:52:37;;;;;;;1999.90;999.90;;;;;;;2.76;46.72;102495.69;6245256;22;97073;-73
2021/10/10 03:57:58;;;;;;;1999.90;999.90;;;;;;;2.69;46.80;102488.13;6235726;22;100724;-72
2021/10/10 04:00:29;;;;;;;1999.90;999.90;;;;;;;2.68;46.82;102488.88;6241658;22;100128;-73
2021/10/10 04:02:58;;;;;;;1999.90;999.90;;;;;;;2.66;46.87;102485.22;6269699;22;96688;-73
2021/10/10 04:05:37;;;;;;;1999.90;999.90;;;;;;;2.66;46.28;102485.22;6270012;22;96779;-73
2021/10/10 04:08:05;;;;;;;1999.90;999.90;;;;;;;2.61;46.67;102481.31;6270689;22;99186;-73
2021/10/10 04:10:33;;;;;;;1999.90;999.90;;;;;;;2.59;46.48;102475.00;6242396;22;98395;-73
2021/10/10 04:13:02;;;;;;;1999.90;999.90;;;;;;;2.55;46.83;102478.19;6272240;22;96561;-74
2021/10/10 04:15:30;;;;;;;1999.90;999.90;;;;;;;2.53;46.56;102474.53;6244041;22;96734;-73
2021/10/10 04:17:58;;;;;;;1999.90;999.90;;;;;;;2.50;46.83;102476.91;6270930;22;97643;-72
2021/10/10 04:20:26;;;;;;;1999.90;999.90;;;;;;;2.48;46.70;102473.25;6271029;22;98489;-72
2021/10/10 04:22:54;;;;;;;1999.90;999.90;;;;;;;2.45;46.54;102470.38;6243986;22;97118;-73
2021/10/10 04:25:21;;;;;;;1999.90;999.90;;;;;;;2.43;46.68;102461.44;6271824;22;96874;-73
2021/10/10 04:27:49;;;;;;;1999.90;999.90;;;;;;;2.41;46.77;102473.53;6270322;22;97544;-73
2021/10/10 04:30:18;;;;;;;1999.90;999.90;;;;;;;2.38;46.42;102476.88;6270720;22;97490;-72
2021/10/10 04:32:46;;;;;;;1999.90;999.90;;;;;;;2.36;46.86;102474.88;6243776;22;96632;-73
2021/10/10 04:35:14;;;;;;;1999.90;999.90;;;;;;;2.33;47.04;102474.66;6271881;22;97189;-73
2021/10/10 04:37:42;;;;;;;1999.90;999.90;;;;;;;2.31;47.02;102468.34;6242818;22;99688;-73
2021/10/10 04:40:11;;;;;;;1999.90;999.90;;;;;;;2.29;46.77;102476.13;6242821;22;97827;-73
2021/10/10 04:42:39;;;;;;;1999.90;999.90;;;;;;;2.28;46.89;102468.09;6272863;22;97161;-74
2021/10/10 04:45:08;;;;;;;1999.90;999.90;;;;;;;2.26;46.35;102472.28;6271742;22;96870;-73
2021/10/10 04:47:36;;;;;;;1999.90;999.90;;;;;;;2.24;46.81;102476.53;6217289;22;99384;-74
2021/10/10 04:50:05;;;;;;;1999.90;999.90;;;;;;;2.21;46.59;102471.94;6243326;22;100045;-73
2021/10/10 04:52:33;;;;;;;1999.90;999.90;;;;;;;2.20;47.06;102472.72;6244304;22;97084;-74
2021/10/10 04:55:02;;;;;;;1999.90;999.90;;;;;;;2.16;47.05;102474.16;6244532;22;96782;-74
2021/10/10 04:57:29;;;;;;;1999.90;999.90;;;;;;;2.14;46.81;102466.97;6242641;22;100072;-74
2021/10/10 04:59:57;;;;;;;1999.90;999.90;;;;;;;2.13;46.97;102473.00;6243684;22;99141;-74
2021/10/10 05:02:25;;;;;;;1999.90;999.90;;;;;;;2.13;46.91;102470.38;6244384;22;97296;-73
2021/10/10 05:04:54;;;;;;;1999.90;999.90;;;;;;;2.10;46.70;102465.81;6271809;22;96563;-73
2021/10/10 05:07:22;;;;;;;1999.90;999.90;;;;;;;2.08;47.23;102464.72;6243251;22;99647;-74
2021/10/10 05:09:49;;;;;;;1999.90;999.90;;;;;;;2.07;46.83;102467.25;6271687;22;98760;-73
2021/10/10 05:12:17;;;;;;;1999.90;999.90;;;;;;;2.06;46.90;102471.56;6272892;22;97043;-73
2021/10/10 05:14:45;;;;;;;1999.90;999.90;;;;;;;2.05;47.15;102471.44;6271562;22;97079;-73
2021/10/10 05:17:13;;;;;;;1999.90;999.90;;;;;;;2.04;46.52;102465.28;6217417;22;98885;-73
2021/10/10 05:19:40;;;;;;;1999.90;999.90;;;;;;;2.00;47.03;102457.94;6243679;22;97636;-73
2021/10/10 05:22:09;;;;;;;1999.90;999.90;;;;;;;1.93;46.69;102463.47;6216941;22;97272;-72
2021/10/10 05:24:37;;;;;;;1999.90;999.90;;;;;;;1.87;46.70;102469.94;6271425;22;96747;-73
2021/10/10 05:27:05;;;;;;;1999.90;999.90;;;;;;;1.82;47.21;102474.78;6242498;22;99552;-73
2021/10/10 05:29:33;;;;;;;1999.90;999.90;;;;;;;1.80;47.06;102467.56;6217236;22;100263;-73
2021/10/10 05:32:00;;;;;;;1999.90;999.90;;;;;;;1.77;47.06;102470.88;6243883;22;96892;-73
2021/10/10 05:34:28;;;;;;;1999.90;999.90;;;;;;;1.74;47.62;102467.06;6272315;22;96428;-73
2021/10/10 05:36:56;;;;;;;1999.90;999.90;;;;;;;1.74;47.14;102472.31;6270218;22;98018;-73
2021/10/10 05:39:24;;;;;;;1999.90;999.90;;;;;;;1.71;46.86;102478.22;6243097;22;99029;-73
2021/10/10 05:41:52;;;;;;;1999.90;999.90;;;;;;;1.67;47.17;102468.25;6218176;22;96900;-73
2021/10/10 05:44:20;;;;;;;1999.90;999.90;;;;;;;1.67;47.23;102475.22;6217907;22;96686;-73
2021/10/10 05:46:48;;;;;;;1999.90;999.90;;;;;;;1.64;47.12;102473.25;6269571;22;97889;-73
2021/10/10 05:49:15;;;;;;;1999.90;999.90;;;;;;;1.63;47.22;102476.69;6243440;22;97671;-73
2021/10/10 05:51:45;;;;;;;1999.90;999.90;;;;;;;1.62;47.00;102477.47;6270843;22;96623;-74
2021/10/10 05:54:14;;;;;;;1999.90;999.90;;;;;;;1.61;47.35;102474.72;6243675;22;97015;-73
2021/10/10 05:56:43;;;;;;;1999.90;999.90;;;;;;;1.60;47.38;102473.78;6216883;22;100921;-73
2021/10/10 05:59:11;;;;;;;1999.90;999.90;;;;;;;1.59;47.05;102469.34;6242634;22;99053;-74
2021/10/10 06:01:39;;;;;;;1999.90;999.90;;;;;;;1.60;47.29;102476.41;6239045;22;96855;-73
2021/10/10 06:04:08;;;;;;;1999.90;999.90;;;;;;;1.60;47.45;102473.78;6268661;22;96832;-73
2021/10/10 06:06:36;;;;;;;1999.90;999.90;;;;;;;1.59;47.59;102477.22;6211913;22;98420;-72
2021/10/10 06:09:05;;;;;;;1999.90;999.90;;;;;;;1.62;47.51;102471.28;6262774;22;97508;-74
2021/10/10 06:11:34;;;;;;;1999.90;999.90;;;;;;;1.62;47.45;102461.72;6236644;22;96834;-73
2021/10/10 06:14:04;;;;;;;1999.90;999.90;;;;;;;1.62;46.77;102461.72;6237237;22;96930;-73
2021/10/10 06:16:35;;;;;;;1999.90;999.90;;;;;;;1.64;47.36;102465.38;6209825;22;99024;-74
2021/10/10 06:19:04;;;;;;;1999.90;999.90;;;;;;;1.67;47.32;102468.25;6264326;22;99195;-74
2021/10/10 06:21:32;;;;;;;1999.90;999.90;;;;;;;1.69;46.96;102471.94;6264462;22;96590;-74
2021/10/10 06:24:00;;;;;;;1999.90;999.90;;;;;;;1.70;47.45;102471.16;6211536;22;97217;-74
2021/10/10 06:26:28;;;;;;;1999.90;999.90;;;;;;;1.73;46.97;102473.09;6263347;22;97416;-75
2021/10/10 06:28:56;;;;;;;1999.90;999.90;;;;;;;1.74;46.82;102469.69;6236955;22;99296;-74
2021/10/10 06:31:25;;;;;;;1999.90;999.90;;;;;;;1.77;47.29;102476.13;6265272;22;97122;-74
2021/10/10 06:33:53;;;;;;;1999.90;999.90;;;;;;;1.80;47.06;102470.19;6266295;22;97285;-75
2021/10/10 06:36:21;;;;;;;1999.90;999.90;;;;;;;1.83;47.07;102471.38;6266496;22;97536;-74
2021/10/10 06:38:49;;;;;;;1999.90;999.90;;;;;;;1.88;46.81;102470.06;6266723;22;97579;-74
2021/10/10 06:41:17;;;;;;;1999.90;999.90;;;;;;;1.90;47.11;102473.72;6239916;22;97915;-74
2021/10/10 06:43:45;;;;;;;1999.90;999.90;;;;;;;1.93;46.94;102476.59;6241976;22;97238;-74
2021/10/10 06:46:12;;;;;;;1999.90;999.90;;;;;;;1.96;46.98;102466.34;6242672;22;101279;-74
2021/10/10 06:48:41;;;;;;;1999.90;999.90;;;;;;;2.01;47.55;102477.22;6268853;22;98819;-74
2021/10/10 06:51:11;;;;;;;1999.90;999.90;;;;;;;2.04;47.01;102478.41;6241129;22;96972;-74
2021/10/10 06:53:38;;;;;;;1999.90;999.90;;;;;;;2.07;46.66;102480.38;6241945;22;96775;-74
2021/10/10 06:56:06;;;;;;;1999.90;999.90;;;;;;;2.10;47.53;102483.28;6267992;22;98684;-74
2021/10/10 06:58:34;;;;;;;1999.90;999.90;;;;;;;2.12;46.71;102485.25;6267013;22;97017;-75
2021/10/10 07:01:02;;;;;;;1999.90;999.90;;;;;;;2.14;46.88;102478.38;6216863;22;96650;-74
2021/10/10 07:03:30;;;;;;;1999.90;999.90;;;;;;;2.17;46.65;102482.97;6269376;22;96771;-74
2021/10/10 07:05:59;;;;;;;1999.90;999.90;;;;;;;2.20;46.72;102489.41;6216098;22;100422;-74
2021/10/10 07:08:27;;;;;;;1999.90;999.90;;;;;;;2.24;47.10;102477.44;6241529;22;99380;-74
2021/10/10 07:10:54;;;;;;;1999.90;999.90;;;;;;;2.28;46.80;102478.59;6218080;22;96618;-74
2021/10/10 07:13:22;;;;;;;1999.90;999.90;;;;;;;2.32;46.76;102480.69;6267435;22;97033;-74
2021/10/10 07:15:51;;;;;;;1999.90;999.90;;;;;;;2.36;47.04;102482.78;6271303;22;98641;-75
2021/10/10 07:18:21;;;;;;;1999.90;999.90;;;;;;;2.38;47.09;102484.75;6270098;22;97321;-70
2021/10/10 07:20:59;;;;;;;1999.90;999.90;;;;;;;2.42;46.53;102485.91;6270066;22;96599;-70
2021/10/10 07:23:34;;;;;;;1999.90;999.90;;;;;;;2.44;46.69;102484.31;6271052;22;96628;-70
2021/10/10 07:26:02;;;;;;;1999.90;999.90;;;;;;;2.47;47.27;102474.97;6269769;22;97569;-71
2021/10/10 07:28:29;;;;;;;1999.90;999.90;;;;;;;2.49;46.42;102473.34;6242025;22;100084;-73
2021/10/10 07:31:00;;;;;;;1999.90;999.90;;;;;;;2.55;47.04;102478.19;6270784;22;97066;-71
2021/10/10 07:33:29;;;;;;;1999.90;999.90;;;;;;;2.59;46.89;102477.66;6243087;22;97139;-74
2021/10/10 07:35:56;;;;;;;1999.90;999.90;;;;;;;2.64;46.67;102471.97;6270589;22;98776;-75
2021/10/10 07:38:24;;;;;;;1999.90;999.90;;;;;;;2.70;46.56;102466.28;6240843;22;99043;-72
2021/10/10 07:40:53;;;;;;;1999.90;999.90;;;;;;;2.75;47.19;102467.56;6270084;22;97183;-72
2021/10/10 07:43:22;;;;;;;1999.90;999.90;;;;;;;2.78;46.91;102468.75;6242832;22;96742;-72
2021/10/10 07:45:51;;;;;;;1999.90;999.90;;;;;;;2.84;46.68;102463.00;6240966;22;98615;-72
2021/10/10 07:48:19;;;;;;;1999.90;999.90;;;;;;;2.88;46.79;102463.41;6241671;22;99394;-75
2021/10/10 07:50:49;;;;;;;1999.90;999.90;;;;;;;2.92;46.31;102465.47;6216012;22;96626;-70
2021/10/10 07:53:16;;;;;;;1999.90;999.90;;;;;;;2.98;47.02;102465.03;6241366;22;96714;-70
2021/10/10 07:55:44;;;;;;;1999.90;999.90;;;;;;;3.03;46.55;102461.03;6268637;22;98738;-69
2021/10/10 07:58:13;;;;;;;1999.90;999.90;;;;;;;3.08;47.01;102468.50;6239862;22;98483;-70
2021/10/10 08:00:41;;;;;;;1999.90;999.90;;;;;;;3.11;46.54;102460.84;6270262;22;97318;-71
2021/10/10 08:03:09;;;;;;;1999.90;999.90;;;;;;;3.18;46.70;102462.25;6265971;22;97570;-72
2021/10/10 08:05:39;;;;;;;1999.90;999.90;;;;;;;3.21;46.55;102467.72;6215241;22;100910;-69
2021/10/10 08:08:08;;;;;;;1999.90;999.90;;;;;;;3.23;46.11;102474.03;6270775;22;98742;-70
2021/10/10 08:10:36;;;;;;;1999.90;999.90;;;;;;;3.28;46.77;102475.28;6269022;22;97053;-69
2021/10/10 08:13:04;;;;;;;1999.90;999.90;;;;;;;3.32;46.07;102480.00;6243240;22;96875;-70
2021/10/10 08:15:34;;;;;;;1999.90;999.90;;;;;;;3.38;46.23;102476.94;6268322;22;97879;-70
2021/10/10 08:18:02;;;;;;;1999.90;999.90;;;;;;;3.42;46.57;102479.94;6238279;22;97672;-71
2021/10/10 08:20:31;;;;;;;1999.90;999.90;;;;;;;3.45;46.36;102474.88;6271911;22;97072;-70
2021/10/10 08:22:59;;;;;;;1999.90;999.90;;;;;;;3.51;46.63;102471.81;6243233;22;97008;-69
2021/10/10 08:25:27;;;;;;;1999.90;999.90;;;;;;;3.54;46.21;102470.31;6268617;22;97856;-71
2021/10/10 08:27:54;;;;;;;1999.90;999.90;;;;;;;3.57;46.19;102475.81;6269537;22;98286;-69
2021/10/10 08:30:22;;;;;;;1999.90;999.90;;;;;;;3.62;46.17;102469.22;6243806;22;97054;-72
2021/10/10 08:32:52;;;;;;;1999.90;999.90;;;;;;;3.64;46.68;102471.94;6244722;22;96994;-70
2021/10/10 08:35:20;;;;;;;1999.90;999.90;;;;;;;3.69;46.27;102467.97;6246295;22;97669;-69
2021/10/10 08:37:49;;;;;;;1999.90;999.90;;;;;;;3.74;46.65;102475.41;6217289;22;99075;-71
2021/10/10 08:40:17;;;;;;;1999.90;999.90;;;;;;;3.81;46.02;102467.19;6243884;22;97187;-70
2021/10/10 08:42:47;;;;;;;1999.90;999.90;;;;;;;3.87;46.05;102470.28;6271637;22;97115;-70
2021/10/10 08:45:18;;;;;;;1999.90;999.90;;;;;;;3.96;46.00;102473.59;6243556;22;99419;-70
2021/10/10 08:47:46;;;;;;;1999.90;999.90;;;;;;;4.01;46.38;102464.31;6242547;22;98611;-69
2021/10/10 08:50:17;;;;;;;1999.90;999.90;;;;;;;4.06;46.31;102465.56;6238347;22;97673;-69
2021/10/10 08:52:46;;;;;;;1999.90;999.90;;;;;;;4.12;46.14;102466.03;6269990;22;97045;-69
2021/10/10 08:55:14;;;;;;;1999.90;999.90;;;;;;;4.18;45.97;102450.66;6271878;22;97763;-69
2021/10/10 08:57:42;;;;;;;1999.90;999.90;;;;;;;4.23;45.93;102451.91;6210331;22;98437;-69
2021/10/10 09:00:15;;;;;;;1999.90;999.90;;;;;;;4.31;45.84;102447.22;6242559;22;96486;-73
2021/10/10 09:02:46;;;;;;;1999.90;999.90;;;;;;;4.37;46.01;102446.75;6233595;22;97131;-69
2021/10/10 09:05:17;;;;;;;1999.90;999.90;;;;;;;4.46;45.86;102452.66;6237791;22;99521;-72
2021/10/10 09:07:45;;;;;;;1999.90;999.90;;;;;;;4.52;45.58;102448.75;6238420;22;97243;-69
2021/10/10 09:10:18;;;;;;;1999.90;999.90;;;;;;;4.59;45.69;102452.75;6266050;22;96568;-71
2021/10/10 09:12:47;;;;;;;1999.90;999.90;;;;;;;4.67;45.70;102448.94;6242459;22;97127;-71
2021/10/10 09:15:17;;;;;;;1999.90;999.90;;;;;;;4.74;45.65;102456.47;6267268;22;100207;-70
2021/10/10 09:17:55;;;;;;;1999.90;999.90;;;;;;;4.82;45.67;102452.66;6238568;22;100621;-71
2021/10/10 09:20:33;;;;;;;1999.90;999.90;;;;;;;4.88;45.32;102450.47;6269887;22;97437;-70
2021/10/10 09:23:02;;;;;;;1999.90;999.90;;;;;;;4.95;45.39;102443.09;6241619;22;96668;-70
2021/10/10 09:25:31;;;;;;;1999.90;999.90;;;;;;;5.00;45.35;102438.13;6236223;22;96731;-73
2021/10/10 09:28:04;;;;;;;1999.90;999.90;;;;;;;5.06;45.33;102441.22;6213923;22;96652;-71
2021/10/10 09:30:49;;;;;;;1999.90;999.90;;;;;;;5.08;46.25;102442.25;6236265;22;96587;-74
2021/10/10 09:33:22;;;;;;;1999.90;999.90;;;;;;;5.16;45.17;102439.31;6238237;22;97366;-71
2021/10/10 09:36:04;;;;;;;1999.90;999.90;;;;;;;5.21;45.46;102445.84;6267437;22;97280;-71
2021/10/10 09:38:40;;;;;;;1999.90;999.90;;;;;;;5.28;44.92;102438.34;6269627;22;97783;-71
2021/10/10 09:41:15;;;;;;;1999.90;999.90;;;;;;;5.33;44.89;102435.22;6243671;22;96838;-71
2021/10/10 09:43:58;;;;;;;1999.90;999.90;;;;;;;5.33;45.52;102434.28;6242666;22;96811;-73
2021/10/10 09:46:28;;;;;;;1999.90;999.90;;;;;;;5.47;44.80;102423.84;6237064;22;99154;-72
2021/10/10 09:48:56;;;;;;;1999.90;999.90;;;;;;;5.56;44.72;102426.19;6240777;22;99766;-71
2021/10/10 09:51:30;;;;;;;1999.90;999.90;;;;;;;5.62;44.91;102416.97;6265024;22;96661;-71
2021/10/10 09:54:03;;;;;;;1999.90;999.90;;;;;;;5.68;44.61;102417.41;6267676;22;97095;-71
2021/10/10 09:56:32;;;;;;;1999.90;999.90;;;;;;;5.76;44.51;102408.22;6266931;22;97718;-69
2021/10/10 09:59:00;;;;;;;1999.90;999.90;;;;;;;5.81;44.37;102412.09;6266240;22;97479;-72
2021/10/10 10:01:29;;;;;;;1999.90;999.90;;;;;;;5.88;44.47;102411.72;6240616;22;97172;-72
2021/10/10 10:04:00;;;;;;;1999.90;999.90;;;;;;;5.96;44.39;102415.75;6241886;22;97118;-70
2021/10/10 10:06:31;;;;;;;1999.90;999.90;;;;;;;6.03;44.37;102404.75;6239109;22;98457;-70
2021/10/10 10:09:03;;;;;;;1999.90;999.90;;;;;;;6.10;43.98;102406.97;6240923;22;98586;-71
2021/10/10 10:11:32;;;;;;;1999.90;999.90;;;;;;;6.18;43.97;102408.41;6241928;22;96836;-70
2021/10/10 10:14:02;;;;;;;1999.90;999.90;;;;;;;6.28;44.05;102403.75;6242164;22;96726;-69
2021/10/10 10:16:31;;;;;;;1999.90;999.90;;;;;;;6.34;43.73;102405.06;6237176;22;98459;-68
2021/10/10 10:18:59;;;;;;;1999.90;999.90;;;;;;;6.42;43.76;102397.59;6265623;22;98771;-70
2021/10/10 10:21:29;;;;;;;1999.90;999.90;;;;;;;6.50;43.52;102409.59;6241791;22;97011;-69
2021/10/10 10:24:00;;;;;;;1999.90;999.90;;;;;;;6.58;43.64;102405.72;6269533;22;97103;-69
2021/10/10 10:26:30;;;;;;;1999.90;999.90;;;;;;;6.66;43.37;102405.34;6264962;22;98547;-70
2021/10/10 10:28:59;;;;;;;1999.90;999.90;;;;;;;6.74;43.41;102404.13;6212691;22;102004;-71
2021/10/10 10:31:27;;;;;;;1999.90;999.90;;;;;;;6.83;43.37;102403.75;6268678;22;96961;-70
2021/10/10 10:34:18;;;;;;;1999.90;999.90;;;;;;;6.88;43.33;102400.59;6241147;22;96750;-70
2021/10/10 10:36:55;;;;;;;1999.90;999.90;;;;;;;6.95;42.81;102393.91;6266610;22;97237;-70
2021/10/10 10:39:34;;;;;;;1999.90;999.90;;;;;;;7.01;42.82;102395.22;6269587;22;97858;-71
2021/10/10 10:42:36;;;;;;;1999.90;999.90;;;;;;;7.10;42.63;102392.22;6269694;22;97110;-69
2021/10/10 10:45:18;;;;;;;1999.90;999.90;;;;;;;7.14;42.40;102396.88;6270404;22;96680;-72
2021/10/10 10:47:47;;;;;;;1999.90;999.90;;;;;;;7.20;42.55;102389.28;6270076;22;98957;-72
2021/10/10 10:50:16;;;;;;;1999.90;999.90;;;;;;;7.26;42.54;102379.06;6242775;22;98972;-70
2021/10/10 10:52:45;;;;;;;1999.90;999.90;;;;;;;7.30;42.75;102378.44;6242758;22;96786;-72
2021/10/10 10:55:20;;;;;;;1999.90;999.90;;;;;;;7.36;42.14;102373.53;6269798;22;97345;-71
2021/10/10 10:57:51;;;;;;;1999.90;999.90;;;;;;;7.54;41.98;102374.63;6268258;22;98209;-67
2021/10/10 11:00:30;;;;;;;1999.90;999.90;;;;;;;7.54;42.28;102374.63;6216186;22;99942;-69
2021/10/10 11:03:16;;;;;;;1999.90;999.90;;;;;;;7.57;41.75;102373.88;6239457;22;97606;-70
2021/10/10 11:05:46;;;;;;;1999.90;999.90;;;;;;;7.64;42.08;102370.75;6271393;22;96650;-70